createdAt,value
2019-06-27T00:02:26.566Z,102295.94
2019-06-27T00:05:01.438Z,102300.16
2019-06-27T00:07:34.033Z,102300.72
2019-06-27T00:10:07.160Z,102299.78
2019-06-27T00:12:38.926Z,102300.48
2019-06-27T00:15:13.292Z,102294.91
2019-06-27T00:17:47.950Z,102298.52
2019-06-27T00:20:24.339Z,102292.64
2019-06-27T00:22:55.942Z,102300.95
2019-06-27T00:25:28.205Z,102299.60
2019-06-27T00:27:59.856Z,102305.50
2019-06-27T00:30:31.514Z,102296.55
2019-06-27T00:33:03.142Z,102302.16
2019-06-27T00:35:34.684Z,102306.57
2019-06-27T00:38:06.662Z,102299.01
2019-06-27T00:40:38.278Z,102299.05
2019-06-27T00:43:10.866Z,102298.74
2019-06-27T00:45:42.699Z,102298.25
2019-06-27T00:48:17.051Z,102297.69
2019-06-27T00:50:48.706Z,102293.92
2019-06-27T00:53:20.326Z,102281.70
2019-06-27T00:55:52.370Z,102297.76
2019-06-27T00:58:24.289Z,102283.99
2019-06-27T01:00:56.224Z,102289.73
2019-06-27T01:03:27.790Z,102296.67
2019-06-27T01:05:59.358Z,102287.87
2019-06-27T01:08:30.958Z,102294.77
2019-06-27T01:11:02.717Z,102293.08
2019-06-27T01:13:34.410Z,102287.46
2019-06-27T01:16:06.503Z,102288.44
2019-06-27T01:18:40.247Z,102288.58
2019-06-27T01:21:13.850Z,102282.41
2019-06-27T01:23:46.040Z,102280.20
2019-06-27T01:26:17.652Z,102286.48
2019-06-27T01:28:49.287Z,102292.00
2019-06-27T01:31:20.886Z,102293.56
2019-06-27T01:33:52.500Z,102301.37
2019-06-27T01:36:24.148Z,102302.94
2019-06-27T01:38:56.208Z,102303.52
2019-06-27T01:41:27.836Z,102298.75
2019-06-27T01:43:59.393Z,102293.09
2019-06-27T01:46:34.090Z,102293.27
2019-06-27T01:49:05.848Z,102297.63
2019-06-27T01:51:37.714Z,102296.47
2019-06-27T01:54:09.427Z,102297.89
2019-06-27T01:56:41.103Z,102299.12
2019-06-27T01:59:12.578Z,102297.26
2019-06-27T02:01:44.122Z,102298.91
2019-06-27T02:04:16.267Z,102301.03
2019-06-27T02:06:47.950Z,102304.20
2019-06-27T02:09:19.568Z,102301.25
2019-06-27T02:11:51.265Z,102300.75
2019-06-27T02:14:23.907Z,102305.07
2019-06-27T02:16:55.533Z,102299.84
2019-06-27T02:19:27.321Z,102302.29
2019-06-27T02:21:59.417Z,102293.48
2019-06-27T02:24:31.595Z,102303.72
2019-06-27T02:27:03.212Z,102302.86
2019-06-27T02:29:35.152Z,102294.86
2019-06-27T02:32:07.078Z,102293.77
2019-06-27T02:34:38.725Z,102296.26
2019-06-27T02:37:12.318Z,102296.17
2019-06-27T02:39:44.909Z,102289.80
2019-06-27T02:42:16.577Z,102291.74
2019-06-27T02:44:48.177Z,102292.00
2019-06-27T02:47:20.274Z,102288.23
2019-06-27T02:49:51.802Z,102290.94
2019-06-27T02:52:23.803Z,102289.80
2019-06-27T02:54:57.804Z,102287.80
2019-06-27T02:57:29.483Z,102286.89
2019-06-27T03:00:01.295Z,102290.42
2019-06-27T03:02:33.038Z,102294.89
2019-06-27T03:05:05.673Z,102287.58
2019-06-27T03:07:37.412Z,102284.47
2019-06-27T03:10:10.366Z,102281.77
2019-06-27T03:12:42.086Z,102292.02
2019-06-27T03:15:14.153Z,102288.91
2019-06-27T03:17:45.847Z,102286.11
2019-06-27T03:20:18.312Z,102282.33
2019-06-27T03:22:50.277Z,102290.31
2019-06-27T03:25:23.653Z,102290.84
2019-06-27T03:27:55.630Z,102279.80
2019-06-27T03:30:27.245Z,102287.17
2019-06-27T03:32:58.922Z,102285.69
2019-06-27T03:35:30.515Z,102285.41
2019-06-27T03:38:02.542Z,102288.88
2019-06-27T03:40:36.563Z,102279.84
2019-06-27T03:43:09.977Z,102282.05
2019-06-27T03:45:41.546Z,102283.55
2019-06-27T03:48:13.421Z,102283.03
2019-06-27T03:50:48.470Z,102278.08
2019-06-27T03:53:20.293Z,102276.45
2019-06-27T03:55:55.114Z,102277.73
2019-06-27T03:58:27.002Z,102279.19
2019-06-27T04:00:58.619Z,102279.11
2019-06-27T04:03:30.431Z,102281.81
2019-06-27T04:06:02.082Z,102279.22
2019-06-27T04:08:34.128Z,102279.77
2019-06-27T04:11:05.809Z,102285.03
2019-06-27T04:13:37.340Z,102284.80
2019-06-27T04:16:09.101Z,102292.92
2019-06-27T04:18:41.190Z,102286.80
2019-06-27T04:21:13.032Z,102296.28
2019-06-27T04:23:47.629Z,102295.28
2019-06-27T04:26:19.952Z,102294.52
2019-06-27T04:28:51.749Z,102278.84
2019-06-27T04:31:25.040Z,102293.86
2019-06-27T04:33:56.959Z,102290.81
2019-06-27T04:36:28.711Z,102283.41
2019-06-27T04:39:00.354Z,102289.12
2019-06-27T04:41:32.016Z,102291.02
2019-06-27T04:44:03.513Z,102288.02
2019-06-27T04:46:45.846Z,102276.71
2019-06-27T04:49:23.574Z,102282.58
2019-06-27T04:51:58.386Z,102279.55
2019-06-27T04:54:48.874Z,102283.12
2019-06-27T04:57:21.517Z,102283.92
2019-06-27T04:59:54.967Z,102286.52
2019-06-27T05:02:30.515Z,102288.06
2019-06-27T05:05:00.067Z,102280.61
2019-06-27T05:07:32.131Z,102281.30
2019-06-27T05:10:03.755Z,102272.48
2019-06-27T05:12:37.061Z,102278.37
2019-06-27T05:18:21.826Z,102281.94
2019-06-27T05:20:53.697Z,102283.34
2019-06-27T05:23:27.186Z,102285.13
2019-06-27T05:25:58.933Z,102287.54
2019-06-27T05:28:30.884Z,102291.59
2019-06-27T05:31:24.158Z,102291.39
2019-06-27T05:33:58.091Z,102278.50
2019-06-27T05:36:30.547Z,102277.59
2019-06-27T05:39:02.443Z,102287.55
2019-06-27T05:41:40.652Z,102281.17
2019-06-27T05:48:15.537Z,102285.52
2019-06-27T05:50:51.591Z,102286.76
2019-06-27T05:56:56.929Z,102271.95
2019-06-27T06:05:54.317Z,102274.64
2019-06-27T06:08:30.521Z,102268.16
2019-06-27T06:11:26.278Z,102270.41
2019-06-27T06:14:02.609Z,102268.16
2019-06-27T06:16:40.031Z,102266.06
2019-06-27T06:19:13.792Z,102266.35
2019-06-27T06:22:04.195Z,102268.25
2019-06-27T06:24:38.847Z,102259.89
2019-06-27T06:27:31.058Z,102267.42
2019-06-27T06:30:03.197Z,102258.08
2019-06-27T06:32:37.924Z,102254.47
2019-06-27T06:35:13.108Z,102256.01
2019-06-27T06:37:48.119Z,102263.17
2019-06-27T06:40:25.300Z,102261.06
2019-06-27T06:43:00.447Z,102263.25
2019-06-27T06:45:31.699Z,102266.55
2019-06-27T06:48:03.550Z,102270.39
2019-06-27T06:50:35.337Z,102267.73
2019-06-27T06:53:07.584Z,102262.55
2019-06-27T06:55:42.668Z,102267.19
2019-06-27T06:58:13.253Z,102261.31
2019-06-27T07:01:01.006Z,102275.56
2019-06-27T07:03:25.832Z,102271.68
2019-06-27T07:06:06.471Z,102277.64
2019-06-27T07:08:40.271Z,102279.42
2019-06-27T07:11:12.619Z,102288.74
2019-06-27T07:14:03.455Z,102282.55
2019-06-27T07:16:37.598Z,102286.88
2019-06-27T07:19:09.136Z,102290.25
2019-06-27T07:21:41.041Z,102286.22
2019-06-27T07:24:16.051Z,102287.68
2019-06-27T07:26:48.365Z,102293.70
2019-06-27T07:29:21.058Z,102301.75
2019-06-27T07:31:53.462Z,102301.95
2019-06-27T07:34:25.087Z,102304.66
2019-06-27T07:36:56.729Z,102284.80
2019-06-27T07:39:28.390Z,102296.48
2019-06-27T07:42:00.226Z,102299.55
2019-06-27T07:44:32.257Z,102303.30
2019-06-27T07:47:07.011Z,102304.81
2019-06-27T07:49:39.935Z,102301.28
2019-06-27T07:52:12.893Z,102307.11
2019-06-27T07:54:53.573Z,102316.98
2019-06-27T07:57:26.102Z,102312.40
2019-06-27T07:59:57.650Z,102313.77
2019-06-27T08:02:29.108Z,102316.14
2019-06-27T08:05:00.603Z,102317.44
2019-06-27T08:07:33.064Z,102315.80
2019-06-27T08:10:04.562Z,102315.45
2019-06-27T08:12:35.936Z,102318.79
2019-06-27T08:15:07.683Z,102312.61
2019-06-27T08:17:39.269Z,102307.28
2019-06-27T08:20:13.027Z,102312.10
2019-06-27T08:22:44.811Z,102317.28
2019-06-27T08:25:17.094Z,102319.83
2019-06-27T08:27:48.823Z,102322.81
2019-06-27T08:30:21.804Z,102321.89
2019-06-27T08:32:53.361Z,102334.34
2019-06-27T08:35:25.959Z,102330.79
2019-06-27T08:37:57.598Z,102332.72
2019-06-27T08:40:29.189Z,102330.78
2019-06-27T08:43:02.269Z,102325.66
2019-06-27T08:45:34.100Z,102331.41
2019-06-27T08:48:05.980Z,102337.09
2019-06-27T08:50:38.960Z,102343.91
2019-06-27T08:53:14.613Z,102338.20
2019-06-27T08:55:46.411Z,102347.30
2019-06-27T08:58:17.909Z,102343.31
2019-06-27T09:00:50.968Z,102356.28
2019-06-27T09:03:22.962Z,102343.92
2019-06-27T09:05:58.295Z,102347.67
2019-06-27T09:08:33.302Z,102347.36
2019-06-27T09:11:06.896Z,102340.24
2019-06-27T09:13:38.419Z,102341.19
2019-06-27T09:16:10.334Z,102331.72
2019-06-27T09:18:41.829Z,102335.81
2019-06-27T09:21:13.367Z,102333.13
2019-06-27T09:23:45.878Z,102340.40
2019-06-27T09:26:17.865Z,102345.22
2019-06-27T09:28:49.481Z,102338.14
2019-06-27T09:31:21.010Z,102340.61
2019-06-27T09:33:52.538Z,102343.19
2019-06-27T09:36:24.051Z,102345.89
2019-06-27T09:38:55.944Z,102347.77
2019-06-27T09:41:27.612Z,102336.75
2019-06-27T09:44:02.163Z,102341.09
2019-06-27T09:46:33.704Z,102344.94
2019-06-27T09:49:07.065Z,102336.13
2019-06-27T09:51:38.716Z,102345.65
2019-06-27T09:54:10.215Z,102343.62
2019-06-27T09:56:41.825Z,102341.97
2019-06-27T09:59:13.363Z,102336.64
2019-06-27T10:01:45.283Z,102347.80
2019-06-27T10:04:16.926Z,102343.80
2019-06-27T10:06:48.890Z,102342.63
2019-06-27T10:09:20.446Z,102345.62
2019-06-27T10:11:53.405Z,102341.27
2019-06-27T10:14:25.078Z,102338.20
2019-06-27T10:16:58.675Z,102332.64
2019-06-27T10:19:30.111Z,102341.13
2019-06-27T10:22:01.807Z,102340.51
2019-06-27T10:24:33.420Z,102332.34
2019-06-27T10:27:05.144Z,102329.19
2019-06-27T10:29:36.629Z,102328.36
2019-06-27T10:32:08.184Z,102334.56
2019-06-27T10:34:39.797Z,102329.88
2019-06-27T10:37:11.427Z,102327.89
2019-06-27T10:39:44.101Z,102322.63
2019-06-27T10:42:15.628Z,102325.14
2019-06-27T10:44:47.214Z,102321.52
2019-06-27T10:47:18.750Z,102322.92
2019-06-27T10:49:50.351Z,102316.87
2019-06-27T10:52:21.944Z,102315.80
2019-06-27T10:54:53.626Z,102317.78
2019-06-27T10:57:25.360Z,102320.45
2019-06-27T10:59:57.048Z,102324.43
2019-06-27T11:02:31.203Z,102317.63
2019-06-27T11:05:03.524Z,102313.55
2019-06-27T11:07:35.103Z,102318.53
2019-06-27T11:10:08.657Z,102307.27
2019-06-27T11:12:40.467Z,102309.56
2019-06-27T11:15:12.381Z,102307.19
2019-06-27T11:17:43.934Z,102319.59
2019-06-27T11:20:16.048Z,102317.53
2019-06-27T11:22:47.765Z,102307.86
2019-06-27T11:25:19.254Z,102314.71
2019-06-27T11:27:50.834Z,102317.19
2019-06-27T11:30:22.456Z,102324.07
2019-06-27T11:32:54.087Z,102318.26
2019-06-27T11:35:25.849Z,102330.19
2019-06-27T11:37:57.463Z,102324.47
2019-06-27T11:40:28.963Z,102325.50
2019-06-27T11:43:00.520Z,102328.57
2019-06-27T11:45:32.251Z,102315.88
2019-06-27T11:48:06.748Z,102319.49
2019-06-27T11:50:38.294Z,102312.55
2019-06-27T11:53:09.783Z,102316.52
2019-06-27T11:55:41.295Z,102315.83
2019-06-27T11:58:13.000Z,102320.50
2019-06-27T12:00:45.270Z,102319.34
2019-06-27T12:03:16.902Z,102304.88
2019-06-27T12:05:48.447Z,102317.09
2019-06-27T12:08:20.030Z,102324.64
2019-06-27T12:10:51.879Z,102321.18
2019-06-27T12:13:23.840Z,102327.66
2019-06-27T12:15:55.383Z,102327.41
2019-06-27T12:18:27.040Z,102323.32
2019-06-27T12:20:59.576Z,102322.81
2019-06-27T12:23:31.855Z,102315.06
2019-06-27T12:26:03.378Z,102312.80
2019-06-27T12:28:35.400Z,102313.20
2019-06-27T12:31:19.802Z,102316.77
2019-06-27T12:33:40.145Z,102310.23
2019-06-27T12:36:12.255Z,102317.19
2019-06-27T12:38:43.732Z,102305.18
2019-06-27T12:41:17.364Z,102314.34
2019-06-27T12:43:49.223Z,102318.37
2019-06-27T12:46:20.891Z,102308.76
2019-06-27T12:48:55.485Z,102304.83
2019-06-27T12:51:28.381Z,102301.86
2019-06-27T12:53:59.851Z,102301.20
2019-06-27T12:56:31.324Z,102296.12
2019-06-27T12:59:03.043Z,102296.16
2019-06-27T13:01:36.594Z,102298.58
2019-06-27T13:04:22.369Z,102289.94
2019-06-27T13:06:41.644Z,102290.38
2019-06-27T13:09:13.251Z,102281.75
2019-06-27T13:11:45.034Z,102288.59
2019-06-27T13:14:16.926Z,102283.01
2019-06-27T13:16:51.244Z,102283.61
2019-06-27T13:19:22.958Z,102283.53
2019-06-27T13:21:54.608Z,102274.11
2019-06-27T13:24:26.453Z,102276.86
2019-06-27T13:26:58.016Z,102274.56
2019-06-27T13:29:29.735Z,102277.16
2019-06-27T13:32:02.585Z,102276.32
2019-06-27T13:34:40.283Z,102282.74
2019-06-27T13:37:08.925Z,102279.33
2019-06-27T13:39:40.583Z,102282.11
2019-06-27T13:42:13.232Z,102277.44
2019-06-27T13:44:44.780Z,102284.33
2019-06-27T13:47:20.083Z,102269.88
2019-06-27T13:49:55.438Z,102274.95
2019-06-27T13:52:27.025Z,102268.36
2019-06-27T13:54:58.503Z,102271.19
2019-06-27T13:57:30.168Z,102280.00
2019-06-27T14:00:01.917Z,102272.88
2019-06-27T14:02:35.186Z,102268.46
2019-06-27T14:05:07.206Z,102266.64
2019-06-27T14:07:38.809Z,102264.55
2019-06-27T14:10:10.553Z,102268.44
2019-06-27T14:12:44.778Z,102262.16
2019-06-27T14:15:15.933Z,102265.61
2019-06-27T14:17:48.013Z,102265.22
2019-06-27T14:20:19.849Z,102263.63
2019-06-27T14:22:51.513Z,102261.80
2019-06-27T14:25:23.064Z,102260.56
2019-06-27T14:27:55.742Z,102253.34
2019-06-27T14:30:27.555Z,102258.62
2019-06-27T14:32:59.498Z,102255.34
2019-06-27T14:35:31.415Z,102257.77
2019-06-27T14:38:04.980Z,102254.39
2019-06-27T14:40:37.990Z,102248.76
2019-06-27T14:43:11.001Z,102238.41
2019-06-27T14:45:43.235Z,102240.80
2019-06-27T14:48:14.997Z,102244.11
2019-06-27T14:50:46.690Z,102246.53
2019-06-27T14:53:18.368Z,102241.95
2019-06-27T14:55:51.320Z,102251.60
2019-06-27T14:58:24.073Z,102254.41
2019-06-27T15:00:59.343Z,102251.20
2019-06-27T15:03:32.692Z,102254.62
2019-06-27T15:06:21.515Z,102254.77
2019-06-27T15:08:47.976Z,102263.28
2019-06-27T15:11:19.526Z,102239.71
2019-06-27T15:13:58.251Z,102247.00
2019-06-27T15:16:29.774Z,102249.19
2019-06-27T15:19:01.282Z,102248.95
2019-06-27T15:21:32.758Z,102254.03
2019-06-27T15:24:04.386Z,102252.16
2019-06-27T15:26:35.930Z,102251.30
2019-06-27T15:29:07.848Z,102252.76
2019-06-27T15:31:39.364Z,102247.84
2019-06-27T15:34:11.068Z,102263.22
2019-06-27T15:36:42.867Z,102261.31
2019-06-27T15:41:51.320Z,102250.77
2019-06-27T15:44:23.884Z,102261.70
2019-06-27T15:46:55.729Z,102267.36
2019-06-27T15:49:30.087Z,102265.22
2019-06-27T15:52:03.106Z,102269.72
2019-06-27T15:54:34.902Z,102269.77
2019-06-27T15:57:06.627Z,102263.81
2019-06-27T15:59:38.251Z,102255.88
2019-06-27T16:02:12.250Z,102259.08
2019-06-27T16:04:44.175Z,102251.79
2019-06-27T16:07:15.696Z,102257.41
2019-06-27T16:09:47.302Z,102244.34
2019-06-27T16:12:18.888Z,102252.09
2019-06-27T16:14:52.269Z,102234.77
2019-06-27T16:17:27.317Z,102241.41
2019-06-27T16:19:59.959Z,102239.00
2019-06-27T16:22:32.030Z,102233.89
2019-06-27T16:25:03.776Z,102223.11
2019-06-27T16:27:39.386Z,102229.83
2019-06-27T16:30:11.541Z,102240.09
2019-06-27T16:32:43.124Z,102234.97
2019-06-27T16:35:14.771Z,102231.19
2019-06-27T16:37:48.089Z,102226.50
2019-06-27T16:40:20.373Z,102228.33
2019-06-27T16:42:52.116Z,102230.59
2019-06-27T16:45:24.480Z,102238.73
2019-06-27T16:47:59.202Z,102239.64
2019-06-27T16:50:33.316Z,102234.55
2019-06-27T16:53:05.013Z,102233.92
2019-06-27T16:55:39.663Z,102229.48
2019-06-27T16:58:15.966Z,102230.63
2019-06-27T17:00:47.582Z,102237.17
2019-06-27T17:03:20.737Z,102240.50
2019-06-27T17:05:54.985Z,102232.45
2019-06-27T17:08:26.629Z,102237.85
2019-06-27T17:10:58.933Z,102232.74
2019-06-27T17:13:30.750Z,102235.44
2019-06-27T17:16:02.366Z,102236.09
2019-06-27T17:18:34.102Z,102233.63
2019-06-27T17:21:05.758Z,102232.60
2019-06-27T17:23:37.403Z,102230.98
2019-06-27T17:26:11.628Z,102228.77
2019-06-27T17:28:42.426Z,102231.91
2019-06-27T17:31:14.145Z,102232.97
2019-06-27T17:33:45.786Z,102239.52
2019-06-27T17:36:17.288Z,102239.36
2019-06-27T17:38:48.934Z,102240.63
2019-06-27T17:41:20.627Z,102250.23
2019-06-27T17:43:52.665Z,102244.45
2019-06-27T17:46:24.243Z,102248.49
2019-06-27T17:48:56.007Z,102243.96
2019-06-27T17:51:27.586Z,102246.55
2019-06-27T17:53:59.187Z,102246.91
2019-06-27T17:56:31.834Z,102243.81
2019-06-27T17:59:03.404Z,102250.45
2019-06-27T18:01:35.615Z,102264.87
2019-06-27T18:04:07.240Z,102255.36
2019-06-27T18:06:39.915Z,102247.28
2019-06-27T18:09:12.289Z,102261.79
2019-06-27T18:11:44.004Z,102262.28
2019-06-27T18:14:15.751Z,102265.48
2019-06-27T18:16:47.412Z,102265.00
2019-06-27T18:19:18.878Z,102261.42
2019-06-27T18:21:50.366Z,102264.73
2019-06-27T18:24:21.973Z,102271.62
2019-06-27T18:26:53.473Z,102262.78
2019-06-27T18:29:25.322Z,102257.77
2019-06-27T18:31:56.870Z,102257.50
2019-06-27T18:34:28.574Z,102260.55
2019-06-27T18:37:00.161Z,102258.23
2019-06-27T18:39:31.965Z,102269.96
2019-06-27T18:42:05.877Z,102262.47
2019-06-27T18:44:37.378Z,102273.77
2019-06-27T18:47:09.833Z,102267.07
2019-06-27T18:49:41.395Z,102269.48
2019-06-27T18:52:13.040Z,102271.62
2019-06-27T18:54:44.598Z,102281.90
2019-06-27T18:57:15.987Z,102279.97
2019-06-27T18:59:47.449Z,102282.28
2019-06-27T19:02:19.254Z,102281.09
2019-06-27T19:04:50.932Z,102279.11
2019-06-27T19:07:22.561Z,102276.89
2019-06-27T19:09:56.747Z,102274.48
2019-06-27T19:12:28.395Z,102284.58
2019-06-27T19:14:59.826Z,102285.97
2019-06-27T19:17:31.325Z,102293.59
2019-06-27T19:20:07.233Z,102293.35
2019-06-27T19:22:56.384Z,102294.25
2019-06-27T19:25:32.234Z,102294.83
2019-06-27T19:28:03.935Z,102295.88
2019-06-27T19:30:35.448Z,102291.55
2019-06-27T19:33:06.937Z,102296.47
2019-06-27T19:35:38.364Z,102298.97
2019-06-27T19:38:09.759Z,102305.59
2019-06-27T19:40:41.268Z,102302.32
2019-06-27T19:43:26.686Z,102306.36
2019-06-27T19:45:46.125Z,102317.70
2019-06-27T19:48:17.685Z,102314.58
2019-06-27T19:50:49.244Z,102320.86
2019-06-27T19:53:21.065Z,102325.66
2019-06-27T19:55:52.470Z,102329.36
2019-06-27T19:58:23.923Z,102335.52
2019-06-27T20:00:55.475Z,102330.80
2019-06-27T20:03:27.086Z,102337.66
2019-06-27T20:05:59.702Z,102330.30
2019-06-27T20:08:31.164Z,102321.91
2019-06-27T20:11:02.778Z,102315.84
2019-06-27T20:13:34.195Z,102319.22
2019-06-27T20:16:05.850Z,102332.11
2019-06-27T20:18:37.694Z,102335.27
2019-06-27T20:21:09.231Z,102338.12
2019-06-27T20:23:41.795Z,102333.69
2019-06-27T20:26:15.305Z,102328.58
2019-06-27T20:28:47.855Z,102325.57
2019-06-27T20:31:21.115Z,102320.35
2019-06-27T20:33:53.738Z,102321.09
2019-06-27T20:36:25.134Z,102320.95
2019-06-27T20:38:57.788Z,102330.53
2019-06-27T20:41:29.579Z,102325.69
2019-06-27T20:44:02.743Z,102319.97
2019-06-27T20:46:34.331Z,102328.46
2019-06-27T20:49:06.052Z,102336.88
2019-06-27T20:51:37.513Z,102348.48
2019-06-27T20:54:12.153Z,102343.44
2019-06-27T20:56:42.218Z,102346.48
2019-06-27T20:59:13.815Z,102337.34
2019-06-27T21:01:45.449Z,102339.51
2019-06-27T21:04:16.988Z,102341.81
2019-06-27T21:06:48.637Z,102345.72
2019-06-27T21:09:20.119Z,102351.34
2019-06-27T21:11:51.956Z,102357.35
2019-06-27T21:14:23.516Z,102352.41
2019-06-27T21:16:55.173Z,102346.59
2019-06-27T21:19:26.717Z,102350.23
2019-06-27T21:21:59.001Z,102340.96
2019-06-27T21:24:30.627Z,102332.99
2019-06-27T21:27:03.217Z,102340.86
2019-06-27T21:29:34.815Z,102337.11
2019-06-27T21:32:06.343Z,102338.39
2019-06-27T21:34:37.828Z,102336.31
2019-06-27T21:37:09.423Z,102344.98
2019-06-27T21:39:40.941Z,102343.35
2019-06-27T21:42:12.448Z,102338.60
2019-06-27T21:44:43.871Z,102343.44
2019-06-27T21:47:15.431Z,102342.86
2019-06-27T21:49:47.127Z,102340.51
2019-06-27T21:52:18.661Z,102344.28
2019-06-27T21:54:50.114Z,102339.67
2019-06-27T21:57:21.765Z,102333.92
2019-06-27T21:59:53.132Z,102338.90
2019-06-27T22:02:24.565Z,102338.31
2019-06-27T22:04:57.016Z,102336.48
2019-06-27T22:07:28.390Z,102341.23
2019-06-27T22:09:59.957Z,102342.52
2019-06-27T22:12:34.347Z,102344.80
2019-06-27T22:15:04.895Z,102350.83
2019-06-27T22:17:36.644Z,102342.12
2019-06-27T22:20:14.913Z,102337.66
2019-06-27T22:22:42.785Z,102341.92
2019-06-27T22:25:14.760Z,102334.34
2019-06-27T22:27:46.148Z,102340.73
2019-06-27T22:30:18.179Z,102346.08
2019-06-27T22:32:49.758Z,102338.53
2019-06-27T22:35:22.465Z,102336.50
2019-06-27T22:38:11.605Z,102343.62
2019-06-27T22:41:00.949Z,102347.78
2019-06-27T22:43:50.240Z,102347.05
2019-06-27T22:48:13.455Z,102345.20
2019-06-27T22:51:06.393Z,102345.14
2019-06-27T22:53:43.144Z,102353.52
2019-06-27T22:56:17.514Z,102353.08
2019-06-27T22:58:49.045Z,102352.36
2019-06-27T23:01:20.630Z,102361.11
2019-06-27T23:03:52.279Z,102356.41
2019-06-27T23:06:23.921Z,102363.32
2019-06-27T23:08:55.591Z,102354.36
2019-06-27T23:11:27.154Z,102352.49
2019-06-27T23:13:58.810Z,102351.66
2019-06-27T23:16:30.281Z,102365.03
2019-06-27T23:19:01.890Z,102365.27
2019-06-27T23:21:33.590Z,102369.88
2019-06-27T23:24:05.121Z,102363.52
2019-06-27T23:26:36.600Z,102367.34
2019-06-27T23:29:08.015Z,102361.60
2019-06-27T23:31:39.638Z,102368.72
2019-06-27T23:34:11.198Z,102369.20
2019-06-27T23:36:42.716Z,102367.80
2019-06-27T23:39:14.294Z,102372.30
2019-06-27T23:41:45.857Z,102361.64
2019-06-27T23:44:17.404Z,102360.94
2019-06-27T23:46:48.881Z,102365.75
2019-06-27T23:49:20.600Z,102366.45
2019-06-27T23:51:52.767Z,102362.55
2019-06-27T23:54:27.439Z,102361.87
2019-06-27T23:56:59.146Z,102365.64
2019-06-27T23:59:30.890Z,102371.90
